createdAt,value
2022-07-29T00:08:54.126Z,12
2022-07-29T00:25:30.537Z,11
2022-07-29T00:42:05.277Z,12
2022-07-29T00:58:41.494Z,11
2022-07-29T01:15:17.251Z,10
2022-07-29T01:31:59.351Z,10
2022-07-29T01:48:27.858Z,10
2022-07-29T02:05:03.902Z,10
2022-07-29T02:21:39.648Z,10
2022-07-29T02:38:14.801Z,10
2022-07-29T02:54:49.671Z,10
2022-07-29T03:11:42.401Z,10
2022-07-29T03:27:53.907Z,10
2022-07-29T03:44:27.852Z,10
2022-07-29T04:01:03.524Z,9
2022-07-29T04:17:37.899Z,11
2022-07-29T04:34:13.692Z,11
2022-07-29T04:50:48.373Z,11
2022-07-29T05:07:22.682Z,11
2022-07-29T05:23:58.609Z,11
2022-07-29T05:40:34.568Z,13
2022-07-29T05:57:10.135Z,14
2022-07-29T06:13:47.597Z,13
2022-07-29T06:30:24.635Z,11
2022-07-29T06:47:01.559Z,13
2022-07-29T07:03:34.470Z,13
2022-07-29T07:20:12.340Z,13
2022-07-29T07:36:50.177Z,13
2022-07-29T07:53:29.087Z,14
2022-07-29T08:10:08.060Z,17
2022-07-29T08:26:47.608Z,13
2022-07-29T08:43:27.089Z,16
2022-07-29T09:00:08.072Z,15
2022-07-29T09:16:53.189Z,13
2022-07-29T09:33:25.915Z,15
2022-07-29T09:50:06.739Z,14
2022-07-29T10:06:48.834Z,14
2022-07-29T10:23:29.705Z,15
2022-07-29T10:40:05.985Z,15
2022-07-29T10:56:46.305Z,15
2022-07-29T11:13:27.032Z,15
2022-07-29T11:30:07.237Z,15
2022-07-29T11:46:48.124Z,16
2022-07-29T12:20:08.876Z,16
2022-07-29T12:36:48.190Z,15
2022-07-29T12:53:28.862Z,17
2022-07-29T13:10:08.187Z,16
2022-07-29T13:26:46.683Z,16
2022-07-29T13:43:26.828Z,14
2022-07-29T14:00:05.365Z,15
2022-07-29T14:16:48.962Z,15
2022-07-29T14:33:22.326Z,15
2022-07-29T14:50:01.439Z,17
2022-07-29T15:06:35.665Z,16
2022-07-29T15:23:15.333Z,12
2022-07-29T15:39:59.702Z,15
2022-07-29T15:56:33.664Z,16
2022-07-29T16:13:17.152Z,15
2022-07-29T16:29:52.132Z,16
2022-07-29T16:46:29.968Z,13
2022-07-29T17:03:09.365Z,15
2022-07-29T17:19:46.905Z,16
2022-07-29T17:36:25.923Z,16
2022-07-29T17:53:03.861Z,16
2022-07-29T18:09:42.644Z,17
2022-07-29T18:26:20.221Z,16
2022-07-29T18:42:53.104Z,14
2022-07-29T18:59:30.295Z,16
2022-07-29T19:16:08.742Z,16
2022-07-29T19:32:45.772Z,15
2022-07-29T19:49:24.042Z,14
2022-07-29T20:06:01.565Z,14
2022-07-29T20:22:37.485Z,12
2022-07-29T20:39:13.058Z,11
2022-07-29T20:55:50.307Z,8
2022-07-29T21:12:26.383Z,11
2022-07-29T21:29:02.243Z,10
2022-07-29T21:45:37.714Z,10
2022-07-29T22:02:12.980Z,11
2022-07-29T22:18:43.759Z,11
2022-07-29T22:35:19.564Z,9
2022-07-29T22:51:55.757Z,10
2022-07-29T23:08:32.212Z,10
2022-07-29T23:25:06.828Z,11
2022-07-29T23:41:41.346Z,10
2022-07-29T23:58:16.409Z,9
